Time;durP1;ratioP1;P1;durP2;ratioP2;P2;SDS_P1;SDS_P2;PMS_P1;PMS_P2;Temp;Humidity;BMP_temperature;BMP_pressure;BME280_temperature;BME280_humidity;BME280_pressure;Samples;Min_cycle;Max_cycle;Signal;HPM_P1;HPM_P2
2024/01/17 00:02:17;;;;;;;;;26.33;24.00;;;;;3.35;68.37;99301.66;4829929;29;46983;-84
2024/01/17 00:04:50;;;;;;;;;25.00;24.00;;;;;3.45;68.34;99294.84;4845558;29;45186;-85
2024/01/17 00:07:15;;;;;;;;;16.00;16.00;;;;;3.36;68.46;99288.53;4830493;29;45402;-85
2024/01/17 00:09:41;;;;;;;;;26.67;24.00;;;;;3.37;68.11;99282.44;4844010;29;45463;-85
2024/01/17 00:12:06;;;;;;;;;32.00;27.00;;;;;3.38;68.34;99281.56;4828668;29;45181;-85
2024/01/17 00:14:31;;;;;;;;;29.33;27.67;;;;;3.45;68.45;99281.69;4844155;29;45046;-84
2024/01/17 00:16:57;;;;;;;;;31.33;26.33;;;;;3.46;68.02;99268.59;4827455;29;45241;-84
2024/01/17 00:19:22;;;;;;;;;28.67;23.67;;;;;3.47;68.82;99261.59;4828901;29;45300;-83
2024/01/17 00:21:50;;;;;;;;;34.00;32.00;;;;;3.52;68.51;99262.56;4828953;29;45767;-84
2024/01/17 00:24:16;;;;;;;;;27.33;20.00;;;;;3.53;68.59;99253.81;4851732;29;45010;-83
2024/01/17 00:26:41;;;;;;;;;30.00;28.00;;;;;3.51;68.88;99239.75;4843149;29;45058;-84
2024/01/17 00:29:06;;;;;;;;;37.67;30.67;;;;;3.50;69.09;99232.75;4829226;29;45416;-83
2024/01/17 00:31:33;;;;;;;;;28.33;28.33;;;;;3.59;68.87;99228.50;4841320;29;47370;-83
2024/01/17 00:33:58;;;;;;;;;27.67;26.67;;;;;3.53;69.29;99235.41;4856443;29;45765;-84
2024/01/17 00:36:24;;;;;;;;;38.00;36.67;;;;;3.52;70.00;99229.28;4843010;29;45449;-84
2024/01/17 00:38:49;;;;;;;;;26.33;24.00;;;;;3.48;70.13;99218.69;4829514;29;44969;-83
2024/01/17 00:41:17;;;;;;;;;30.33;29.00;;;;;3.48;70.47;99202.91;4831107;29;45343;-83
2024/01/17 00:43:42;;;;;;;;;30.67;27.67;;;;;3.43;70.60;99205.44;4829027;29;45386;-84
2024/01/17 00:46:07;;;;;;;;;35.00;25.00;;;;;3.41;70.64;99199.28;4844989;29;45270;-83
2024/01/17 00:48:34;;;;;;;;;30.33;25.67;;;;;3.40;71.82;99190.50;4842764;29;45360;-83
2024/01/17 00:50:59;;;;;;;;;27.67;25.33;;;;;3.44;71.12;99185.31;4846075;29;46674;-82
2024/01/17 00:53:25;;;;;;;;;40.33;28.67;;;;;3.37;71.32;99169.44;4845312;29;48082;-84
2024/01/17 00:55:50;;;;;;;;;33.00;28.67;;;;;3.46;72.36;99183.63;4831852;29;44887;-84
2024/01/17 00:58:18;;;;;;;;;34.33;30.67;;;;;3.49;73.23;99174.00;4833272;29;45018;-83
2024/01/17 01:00:43;;;;;;;;;35.67;30.33;;;;;3.38;72.85;99165.94;4846025;29;45238;-83
2024/01/17 01:03:08;;;;;;;;;34.67;32.33;;;;;3.37;73.58;99158.03;4868070;29;45019;-83
2024/01/17 01:05:34;;;;;;;;;38.67;35.67;;;;;3.32;74.48;99144.81;4850782;29;45248;-84
2024/01/17 01:07:59;;;;;;;;;41.00;34.00;;;;;3.29;74.55;99147.41;4867395;29;45329;-83
2024/01/17 01:10:24;;;;;;;;;42.00;36.00;;;;;3.24;75.68;99138.56;4866570;29;53964;-83
2024/01/17 01:12:50;;;;;;;;;34.67;31.33;;;;;3.20;75.63;99128.84;4867619;29;45353;-83
2024/01/17 01:15:15;;;;;;;;;36.67;34.00;;;;;3.26;75.54;99134.22;4868904;29;44895;-84
2024/01/17 01:17:47;;;;;;;;;33.33;32.00;;;;;3.25;75.75;99119.28;4867072;29;45418;-84
2024/01/17 01:20:12;;;;;;;;;30.33;29.00;;;;;3.27;77.47;99121.94;4835756;29;47346;-83
2024/01/17 01:22:37;;;;;;;;;28.00;24.50;;;;;3.26;77.39;99123.69;4851128;29;46100;-83
2024/01/17 01:25:04;;;;;;;;;36.00;32.75;;;;;3.19;77.59;99091.19;4852801;29;44978;-84
2024/01/17 01:27:29;;;;;;;;;38.50;31.75;;;;;3.17;78.19;99092.00;4868176;29;45100;-82
2024/01/17 01:29:54;;;;;;;;;51.75;38.75;;;;;3.14;78.43;99074.47;4852886;29;45198;-84
2024/01/17 01:32:20;;;;;;;;;36.00;29.67;;;;;3.08;79.88;99063.84;4869461;29;45393;-82
2024/01/17 01:34:45;;;;;;;;;34.00;30.33;;;;;3.06;79.17;99046.31;4869574;29;44846;-83
2024/01/17 01:37:10;;;;;;;;;34.33;30.33;;;;;3.20;79.84;99068.44;4869897;29;44806;-83
2024/01/17 01:39:36;;;;;;;;;34.33;33.33;;;;;3.14;80.46;99045.56;4866287;29;47312;-83
2024/01/17 01:42:02;;;;;;;;;44.00;39.00;;;;;3.20;80.73;99050.03;4867536;29;44892;-84
2024/01/17 01:44:27;;;;;;;;;35.33;34.00;;;;;3.19;80.26;99053.50;4850382;29;44885;-83
2024/01/17 01:46:54;;;;;;;;;33.00;27.33;;;;;3.20;81.51;99045.66;4850681;29;45346;-83
2024/01/17 01:49:19;;;;;;;;;32.00;32.00;;;;;3.15;80.88;99036.84;4852359;29;48323;-83
2024/01/17 01:51:46;;;;;;;;;32.33;28.33;;;;;3.16;81.49;99021.97;4872095;29;44949;-84
2024/01/17 01:54:16;;;;;;;;;39.00;32.67;;;;;3.24;81.74;99025.59;4872347;29;44859;-84
2024/01/17 01:56:42;;;;;;;;;34.67;31.67;;;;;3.13;81.72;99006.13;4853477;29;45392;-84
2024/01/17 01:59:10;;;;;;;;;37.33;36.33;;;;;3.24;82.85;99022.09;4867855;29;45465;-84
2024/01/17 02:01:35;;;;;;;;;36.00;31.33;;;;;3.12;83.08;99004.38;4861341;29;45457;-78
2024/01/17 02:04:02;;;;;;;;;34.33;31.67;;;;;3.21;84.67;99001.88;4845227;29;45589;-79
2024/01/17 02:06:33;;;;;;;;;40.67;33.00;;;;;3.21;84.76;98986.13;4858164;29;44959;-79
2024/01/17 02:09:00;;;;;;;;;41.33;33.67;;;;;3.26;85.57;98989.72;4842173;29;47304;-79
2024/01/17 02:11:28;;;;;;;;;37.67;36.00;;;;;3.28;85.74;98985.38;4844516;29;45420;-78
2024/01/17 02:13:53;;;;;;;;;38.67;34.00;;;;;3.21;85.29;98975.63;4857187;29;45412;-82
2024/01/17 02:16:19;;;;;;;;;38.00;32.00;;;;;3.13;86.56;98953.59;4858714;29;45736;-79
2024/01/17 02:18:46;;;;;;;;;41.67;37.00;;;;;3.19;86.80;98951.97;4859789;29;47136;-80
2024/01/17 02:21:12;;;;;;;;;44.00;37.00;;;;;3.18;88.17;98941.44;4845956;29;45514;-80
2024/01/17 02:23:37;;;;;;;;;42.00;35.67;;;;;3.19;89.09;98937.94;4860322;29;44857;-80
2024/01/17 02:26:03;;;;;;;;;32.67;32.67;;;;;3.22;89.21;98939.75;4844262;29;45358;-79
2024/01/17 02:28:30;;;;;;;;;42.33;35.67;;;;;3.19;90.49;98906.41;4844190;29;47194;-78
2024/01/17 02:30:56;;;;;;;;;31.67;30.67;;;;;3.14;90.94;98908.09;4845154;29;45437;-78
2024/01/17 02:33:22;;;;;;;;;29.33;29.00;;;;;3.14;90.68;98887.09;4844309;29;45448;-80
2024/01/17 02:35:48;;;;;;;;;36.33;31.33;;;;;3.33;92.38;98915.41;4844157;29;45531;-79
2024/01/17 02:38:15;;;;;;;;;42.00;35.67;;;;;3.33;92.46;98910.13;4843835;29;47403;-79
2024/01/17 02:40:40;;;;;;;;;35.33;34.33;;;;;3.37;91.78;98896.19;4845517;29;45473;-77
2024/01/17 02:43:06;;;;;;;;;42.00;42.00;;;;;3.42;91.63;98904.13;4845011;29;45449;-78
2024/01/17 02:45:32;;;;;;;;;41.67;35.33;;;;;3.27;90.95;98868.00;4828810;29;45761;-80
2024/01/17 02:47:57;;;;;;;;;41.33;33.67;;;;;3.46;91.88;98889.28;4844458;29;45395;-79
2024/01/17 02:50:23;;;;;;;;;43.00;38.00;;;;;3.54;92.61;98887.63;4844857;29;44880;-79
2024/01/17 02:52:49;;;;;;;;;37.00;32.33;;;;;3.44;93.54;98881.38;4845905;29;45411;-78
2024/01/17 02:55:19;;;;;;;;;38.33;35.00;;;;;3.38;93.89;98855.88;4845941;29;45413;-79
2024/01/17 02:57:45;;;;;;;;;44.00;35.67;;;;;3.50;93.21;98875.31;4845543;29;45970;-79
2024/01/17 03:00:11;;;;;;;;;34.67;30.00;;;;;3.45;94.08;98862.09;4843163;29;45817;-78
2024/01/17 03:02:37;;;;;;;;;45.33;38.00;;;;;3.47;93.87;98865.63;4858453;29;45516;-77
2024/01/17 03:05:06;;;;;;;;;37.67;34.33;;;;;3.51;93.71;98861.28;4843391;29;45835;-78
2024/01/17 03:07:31;;;;;;;;;43.67;37.00;;;;;3.50;94.82;98857.78;4845550;29;47115;-78
2024/01/17 03:09:57;;;;;;;;;41.33;33.00;;;;;3.47;96.31;98843.72;4843442;29;45588;-79
2024/01/17 03:12:22;;;;;;;;;44.00;36.00;;;;;3.51;96.22;98841.13;4843709;29;45529;-81
2024/01/17 03:14:49;;;;;;;;;38.33;35.00;;;;;3.47;97.53;98833.22;4844860;29;45508;-79
2024/01/17 03:17:16;;;;;;;;;43.00;36.33;;;;;3.49;97.61;98836.72;4833828;29;45618;-78
2024/01/17 03:19:46;;;;;;;;;37.33;33.00;;;;;3.57;98.85;98829.81;4824966;29;45316;-78
2024/01/17 03:22:11;;;;;;;;;42.00;35.00;;;;;3.43;97.53;98818.28;4839321;29;45500;-79
2024/01/17 03:24:37;;;;;;;;;38.33;34.33;;;;;3.47;99.48;98817.44;4824447;29;45001;-78
2024/01/17 03:27:03;;;;;;;;;41.33;36.67;;;;;3.44;99.59;98812.16;4822456;29;46997;-77
2024/01/17 03:29:29;;;;;;;;;37.00;33.67;;;;;3.34;99.87;98785.78;4823730;29;45466;-79
2024/01/17 03:31:54;;;;;;;;;39.00;35.67;;;;;3.40;100.00;98790.22;4824023;29;45377;-80
2024/01/17 03:34:20;;;;;;;;;39.67;37.00;;;;;3.49;100.00;98799.94;4824768;29;45528;-79
2024/01/17 03:36:46;;;;;;;;;46.33;40.67;;;;;3.39;100.00;98760.44;4824739;29;47066;-79
2024/01/17 03:39:45;;;;;;;;;43.67;34.67;;;;;3.65;100.00;98769.44;4825789;29;44900;-80
2024/01/17 03:42:15;;;;;;;;;38.33;37.33;;;;;3.53;99.18;98752.69;4826995;29;45632;-78
2024/01/17 03:44:43;;;;;;;;;48.67;41.33;;;;;3.55;100.00;98752.69;4826661;29;44918;-78
2024/01/17 03:47:08;;;;;;;;;39.00;34.00;;;;;3.53;100.00;98744.78;4824650;29;47153;-78
2024/01/17 03:49:34;;;;;;;;;40.33;37.00;;;;;3.53;100.00;98736.91;4839143;29;45815;-79
2024/01/17 03:52:01;;;;;;;;;43.67;38.00;;;;;3.68;100.00;98728.31;4825196;29;45222;-78
2024/01/17 03:54:26;;;;;;;;;43.33;41.00;;;;;3.61;100.00;98718.59;4824555;29;45419;-78
2024/01/17 03:56:52;;;;;;;;;36.67;35.00;;;;;3.60;100.00;98701.06;4824257;29;47183;-78
2024/01/17 03:59:17;;;;;;;;;39.67;36.33;;;;;3.54;100.00;98688.75;4824628;29;46198;-80
2024/01/17 04:01:43;;;;;;;;;39.00;34.00;;;;;3.66;100.00;98687.97;4824941;29;45534;-78
2024/01/17 04:04:09;;;;;;;;;43.00;38.00;;;;;3.63;100.00;98685.31;4828099;29;45249;-80
2024/01/17 04:06:35;;;;;;;;;43.67;38.33;;;;;3.61;100.00;98679.16;4840746;29;47598;-80
2024/01/17 04:09:00;;;;;;;;;43.33;37.00;;;;;3.65;100.00;98678.31;4821674;29;45398;-78
2024/01/17 04:11:26;;;;;;;;;34.33;34.33;;;;;3.66;100.00;98666.09;4824195;29;45582;-78
2024/01/17 04:13:51;;;;;;;;;44.67;39.00;;;;;3.54;100.00;98693.13;4839041;29;45427;-79
2024/01/17 04:16:17;;;;;;;;;42.00;37.67;;;;;3.59;100.00;98665.13;4823397;29;47836;-80
2024/01/17 04:18:43;;;;;;;;;36.67;36.67;;;;;3.71;100.00;98665.22;4825753;29;44797;-79
2024/01/17 04:21:08;;;;;;;;;45.00;40.00;;;;;3.54;100.00;98609.03;4839406;29;45430;-78
2024/01/17 04:23:35;;;;;;;;;41.67;37.33;;;;;3.79;100.00;98623.22;4826127;29;45481;-79
2024/01/17 04:26:02;;;;;;;;;43.33;39.33;;;;;3.67;100.00;98607.38;4829629;29;45809;-78
2024/01/17 04:28:34;;;;;;;;;49.67;41.00;;;;;3.74;100.00;98610.06;4828378;29;45459;-79
2024/01/17 04:30:59;;;;;;;;;49.75;42.00;;;;;3.71;100.00;98594.25;4830422;29;45599;-79
2024/01/17 04:33:25;;;;;;;;;35.00;30.67;;;;;3.77;100.00;98594.28;4828463;29;45527;-78
2024/01/17 04:35:50;;;;;;;;;28.67;26.00;;;;;3.79;100.00;98575.91;4828609;29;47151;-78
2024/01/17 04:38:15;;;;;;;;;25.67;23.33;;;;;3.86;100.00;98561.03;4827553;29;45382;-77
2024/01/17 04:40:41;;;;;;;;;36.33;35.33;;;;;3.88;100.00;98557.56;4827828;29;45422;-79
2024/01/17 04:43:06;;;;;;;;;35.00;31.00;;;;;3.86;100.00;98553.16;4825315;29;45418;-78
2024/01/17 04:45:32;;;;;;;;;22.33;22.00;;;;;3.91;100.00;98548.81;4829200;29;45590;-80
2024/01/17 04:47:57;;;;;;;;;40.33;37.33;;;;;3.87;100.00;98529.50;4826889;29;45499;-80
2024/01/17 04:50:22;;;;;;;;;28.33;20.33;;;;;3.92;100.00;98524.25;4826008;29;45422;-78
2024/01/17 04:52:48;;;;;;;;;35.67;32.33;;;;;3.97;100.00;98518.16;4826899;29;45454;-79
2024/01/17 04:55:15;;;;;;;;;44.00;39.33;;;;;3.93;100.00;98505.00;4824947;29;48182;-79
2024/01/17 04:57:41;;;;;;;;;39.00;34.00;;;;;3.92;100.00;98495.31;4826375;29;45638;-78
2024/01/17 05:00:08;;;;;;;;;37.33;29.67;;;;;3.94;100.00;98485.72;4829567;29;44806;-78
2024/01/17 05:02:48;;;;;;;;;39.67;29.00;;;;;4.09;100.00;98496.28;4847705;29;44772;-77
2024/01/17 05:05:13;;;;;;;;;37.00;32.00;;;;;3.94;100.00;98493.63;4829859;29;47160;-79
2024/01/17 05:07:39;;;;;;;;;32.00;32.00;;;;;4.03;100.00;98498.91;4844792;29;44944;-79
2024/01/17 05:10:05;;;;;;;;;35.67;30.33;;;;;4.09;100.00;98498.91;4848322;29;45968;-78
2024/01/17 05:12:33;;;;;;;;;36.33;31.67;;;;;4.22;100.00;98507.72;4847661;29;45298;-78
2024/01/17 05:14:58;;;;;;;;;31.67;28.33;;;;;4.15;100.00;98506.84;4846126;29;45287;-77
2024/01/17 05:17:23;;;;;;;;;38.33;30.00;;;;;4.18;100.00;98498.97;4850884;29;45352;-78
2024/01/17 05:19:49;;;;;;;;;41.00;37.67;;;;;4.02;100.00;98486.63;4828000;29;45767;-79
2024/01/17 05:22:14;;;;;;;;;31.00;28.00;;;;;4.09;100.00;98493.66;4847226;29;45393;-78
2024/01/17 05:24:40;;;;;;;;;36.33;33.67;;;;;4.16;100.00;98500.72;4845351;29;47066;-80
2024/01/17 05:27:05;;;;;;;;;36.33;34.33;;;;;4.10;100.00;98484.91;4846440;29;45420;-78
2024/01/17 05:29:32;;;;;;;;;45.33;39.67;;;;;4.12;100.00;98485.78;4845287;29;45418;-78
2024/01/17 05:31:58;;;;;;;;;25.00;25.00;;;;;4.00;100.00;98456.81;4845620;29;45836;-78
2024/01/17 05:34:23;;;;;;;;;36.67;35.00;;;;;3.99;100.00;98460.31;4845235;29;46861;-80
2024/01/17 05:36:49;;;;;;;;;40.33;34.00;;;;;4.01;100.00;98453.31;4847850;29;45489;-79
2024/01/17 05:39:14;;;;;;;;;23.67;23.67;;;;;4.06;100.00;98448.94;4845926;29;44870;-78
2024/01/17 05:41:39;;;;;;;;;39.00;33.00;;;;;4.06;100.00;98446.31;4845891;29;45520;-79
2024/01/17 05:44:05;;;;;;;;;38.33;32.67;;;;;4.01;100.00;98432.25;4847160;29;45415;-79
2024/01/17 05:46:31;;;;;;;;;35.33;31.33;;;;;3.92;100.00;98417.34;4846147;29;45003;-78
2024/01/17 05:48:57;;;;;;;;;38.67;36.00;;;;;4.07;100.00;98424.38;4847046;29;45482;-79
2024/01/17 05:51:22;;;;;;;;;46.00;41.33;;;;;4.09;100.00;98421.78;4845199;29;45440;-80
2024/01/17 05:53:47;;;;;;;;;38.33;33.33;;;;;4.08;100.00;98410.38;4856237;29;45408;-80
2024/01/17 05:56:13;;;;;;;;;44.33;36.33;;;;;4.07;100.00;98397.22;4865092;29;45347;-78
2024/01/17 05:58:38;;;;;;;;;42.00;39.00;;;;;4.07;100.00;98399.84;4864535;29;45690;-78
2024/01/17 06:01:11;;;;;;;;;40.67;31.33;;;;;4.09;100.00;98398.97;4844566;29;45441;-78
2024/01/17 06:03:36;;;;;;;;;34.00;29.00;;;;;4.08;100.00;98389.34;4860069;29;47246;-78
2024/01/17 06:06:01;;;;;;;;;29.33;29.33;;;;;4.10;100.00;98376.16;4845783;29;45920;-79
2024/01/17 06:08:27;;;;;;;;;33.33;30.67;;;;;4.11;100.00;98370.91;4859548;29;45686;-80
2024/01/17 06:10:52;;;;;;;;;35.00;30.00;;;;;4.09;100.00;98362.13;4845826;29;45629;-79
2024/01/17 06:13:17;;;;;;;;;38.33;33.67;;;;;4.14;100.00;98355.16;4859052;29;47411;-79
2024/01/17 06:15:49;;;;;;;;;33.33;31.67;;;;;4.23;100.00;98338.50;4859492;29;45400;-78
2024/01/17 06:18:14;;;;;;;;;32.00;30.33;;;;;4.15;100.00;98334.97;4860100;29;45511;-80
2024/01/17 06:20:40;;;;;;;;;36.67;32.67;;;;;4.08;100.00;98323.56;4844354;29;45472;-79
2024/01/17 06:23:05;;;;;;;;;35.33;31.00;;;;;4.05;100.00;98312.19;4847205;29;45497;-79
2024/01/17 06:25:30;;;;;;;;;30.33;28.67;;;;;4.82;100.00;98313.00;4845513;29;45257;-78
2024/01/17 06:27:56;;;;;;;;;25.00;25.00;;;;;4.72;100.00;98312.13;4845350;29;45471;-80
2024/01/17 06:30:22;;;;;;;;;32.33;28.67;;;;;4.56;100.00;98284.94;4844412;29;45405;-80
2024/01/17 06:32:47;;;;;;;;;30.00;30.00;;;;;4.72;100.00;98296.34;4859023;29;47423;-80
2024/01/17 06:35:13;;;;;;;;;27.33;22.67;;;;;4.59;100.00;98263.91;4845648;29;45371;-78
2024/01/17 06:37:38;;;;;;;;;33.33;28.33;;;;;4.71;100.00;98277.94;4843687;29;45429;-79
2024/01/17 06:40:04;;;;;;;;;28.67;26.33;;;;;4.78;100.00;98282.28;4847201;29;45152;-79
2024/01/17 06:42:30;;;;;;;;;34.00;31.33;;;;;4.72;100.00;98261.25;4845393;29;48085;-79
2024/01/17 06:44:55;;;;;;;;;33.33;29.00;;;;;4.69;100.00;98271.78;4844049;29;44861;-79
2024/01/17 06:47:21;;;;;;;;;34.00;31.00;;;;;4.66;100.00;98253.34;4845329;29;44762;-78
2024/01/17 06:49:46;;;;;;;;;22.00;16.00;;;;;4.66;100.00;98248.09;4847039;29;45507;-78
2024/01/17 06:52:11;;;;;;;;;27.67;24.33;;;;;4.57;100.00;98241.97;4860720;29;47081;-80
2024/01/17 06:54:37;;;;;;;;;27.67;27.67;;;;;4.60;100.00;98243.72;4860474;29;45509;-80
2024/01/17 06:57:02;;;;;;;;;32.33;29.67;;;;;4.69;100.00;98246.34;4845447;29;44862;-79
2024/01/17 06:59:28;;;;;;;;;36.00;27.67;;;;;4.72;100.00;98242.81;4846056;29;45451;-79
2024/01/17 07:01:54;;;;;;;;;32.33;30.33;;;;;4.64;100.00;98218.25;4860086;29;45784;-81
2024/01/17 07:04:19;;;;;;;;;26.00;24.67;;;;;4.84;100.00;98242.78;4862796;29;45474;-78
2024/01/17 07:10:08;;;;;;;;;29.67;27.33;;;;;4.80;100.00;98233.13;4869461;29;44861;-81
2024/01/17 07:12:33;;;;;;;;;29.00;29.00;;;;;4.86;100.00;98234.88;4861630;29;47432;-81
2024/01/17 07:14:59;;;;;;;;;27.33;25.67;;;;;4.84;100.00;98231.38;4863646;29;45474;-79
2024/01/17 07:17:24;;;;;;;;;23.33;19.33;;;;;4.81;100.00;98221.72;4863640;29;45968;-78
2024/01/17 07:23:12;;;;;;;;;29.33;28.67;;;;;4.70;100.00;98199.81;4847833;29;45722;-79
2024/01/17 07:25:38;;;;;;;;;30.33;26.00;;;;;4.64;100.00;98189.31;4829269;29;45862;-78
2024/01/17 07:28:05;;;;;;;;;26.00;22.33;;;;;4.55;100.00;98177.94;4843421;29;45464;-79
2024/01/17 07:30:31;;;;;;;;;26.00;23.00;;;;;4.53;100.00;98182.31;4845104;29;44754;-79
2024/01/17 07:36:18;;;;;;;;;30.33;30.33;;;;;4.56;100.00;98178.78;4884112;29;45347;-80
2024/01/17 07:38:43;;;;;;;;;30.33;28.33;;;;;4.52;100.00;98164.75;4866347;29;45453;-80
2024/01/17 07:41:09;;;;;;;;;29.00;27.33;;;;;4.54;100.00;98148.97;4883651;29;45431;-79
2024/01/17 07:43:35;;;;;;;;;27.00;25.00;;;;;4.61;100.00;98151.59;4851042;29;47214;-80
2024/01/17 07:46:01;;;;;;;;;34.67;31.67;;;;;4.27;100.00;98113.13;4850761;29;45507;-81
2024/01/17 07:48:27;;;;;;;;;30.00;28.00;;;;;4.32;100.00;98117.50;4866673;29;45434;-80
2024/01/17 07:50:52;;;;;;;;;35.67;29.33;;;;;4.36;100.00;98110.44;4867308;29;45334;-81
2024/01/17 07:53:20;;;;;;;;;28.33;28.33;;;;;4.48;100.00;98123.53;4864298;29;47250;-79
2024/01/17 07:55:45;;;;;;;;;28.33;24.67;;;;;4.49;100.00;98121.81;4866376;29;45537;-81
2024/01/17 07:58:11;;;;;;;;;24.33;21.67;;;;;4.55;100.00;98151.59;4876061;29;45494;-80
2024/01/17 08:00:58;;;;;;;;;26.00;24.67;;;;;4.65;100.00;98173.50;4886831;29;44929;-80
2024/01/17 08:03:23;;;;;;;;;30.33;28.00;;;;;4.46;100.00;98120.03;4873199;29;46777;-81
2024/01/17 08:05:51;;;;;;;;;9.00;7.33;;;;;4.76;100.00;98132.19;4889397;29;44961;-81
2024/01/17 08:08:17;;;;;;;;;21.00;19.33;;;;;4.74;100.00;98119.94;4854168;29;45732;-81
2024/01/17 08:10:42;;;;;;;;;21.00;19.67;;;;;8.93;93.06;98071.22;4861326;29;45275;-81
2024/01/17 08:13:07;;;;;;;;;25.33;22.67;;;;;8.79;91.17;98076.81;4871951;29;47258;-80
2024/01/17 08:15:33;;;;;;;;;27.33;25.00;;;;;8.60;91.76;98073.69;4853270;29;45440;-81
2024/01/17 08:17:58;;;;;;;;;23.67;22.67;;;;;8.57;91.22;98052.53;4869634;29;45386;-81
2024/01/17 08:20:24;;;;;;;;;18.33;16.33;;;;;8.54;90.79;98057.94;4839173;29;45262;-80
2024/01/17 08:22:52;;;;;;;;;20.67;20.67;;;;;8.60;92.41;98043.66;4876855;29;45393;-82
2024/01/17 08:25:18;;;;;;;;;24.33;23.00;;;;;8.33;91.92;97998.28;4891350;29;45530;-80
2024/01/17 08:27:44;;;;;;;;;19.00;18.00;;;;;8.29;92.24;98016.91;4875558;29;44867;-81
2024/01/17 08:30:09;;;;;;;;;25.67;22.67;;;;;8.44;93.75;98034.28;4873482;29;46025;-84
2024/01/17 08:32:36;;;;;;;;;21.33;21.00;;;;;8.37;94.90;98017.63;4861103;29;46706;-85
2024/01/17 08:35:12;;;;;;;;;27.67;22.00;;;;;8.76;97.22;98029.16;4855725;29;44799;-85
2024/01/17 08:38:14;;;;;;;;;22.33;21.00;;;;;8.73;96.81;98031.03;4870533;29;44770;-84
2024/01/17 08:40:39;;;;;;;;;17.67;17.67;;;;;8.15;98.63;97981.00;4840238;29;45564;-83
2024/01/17 08:43:05;;;;;;;;;19.67;18.67;;;;;8.33;98.74;97997.41;4875717;29;45450;-83
2024/01/17 08:45:31;;;;;;;;;22.33;20.00;;;;;8.59;97.74;98000.41;4859111;29;44891;-84
2024/01/17 08:47:56;;;;;;;;;24.00;21.00;;;;;8.53;98.09;97979.34;4858613;29;45936;-85
2024/01/17 08:50:21;;;;;;;;;18.00;16.00;;;;;8.79;96.44;97989.34;4852922;29;44857;-84
2024/01/17 08:53:24;;;;;;;;;22.00;20.00;;;;;8.65;97.00;97950.84;4877158;29;45340;-85
2024/01/17 08:56:25;;;;;;;;;;;;;;;;;;;;;
2024/01/17 08:59:04;;;;;;;;;;;;;;;;;;;;;
2024/01/17 09:01:43;;;;;;;;;15.00;15.00;;;;;9.33;95.85;97958.91;4853675;29;64612;-84
2024/01/17 09:04:12;;;;;;;;;17.33;15.00;;;;;9.01;95.24;97957.91;4845464;29;47069;-84
2024/01/17 09:06:38;;;;;;;;;15.33;14.33;;;;;9.03;94.90;97947.28;4861290;29;45430;-80
2024/01/17 09:09:04;;;;;;;;;19.00;16.33;;;;;9.18;95.72;97946.88;4867220;29;45479;-84
2024/01/17 09:11:31;;;;;;;;;18.33;15.67;;;;;9.16;94.77;97939.88;4856822;29;45464;-84
2024/01/17 09:14:03;;;;;;;;;21.33;19.00;;;;;9.39;93.68;97911.00;4852105;29;45495;-84
2024/01/17 09:16:30;;;;;;;;;17.67;15.00;;;;;9.01;93.35;97910.19;4864121;29;45243;-83
2024/01/17 09:19:10;;;;;;;;;25.00;22.67;;;;;9.59;94.69;97931.69;4863450;29;45392;-84
2024/01/17 09:21:39;;;;;;;;;17.67;17.00;;;;;9.41;94.78;97933.03;4842529;29;44872;-84
2024/01/17 09:24:10;;;;;;;;;12.33;12.33;;;;;9.79;94.05;97922.28;4837258;29;47629;-85
2024/01/17 09:27:05;;;;;;;;;17.67;16.00;;;;;9.87;94.37;97924.72;4843162;29;44832;-85
2024/01/17 09:29:33;;;;;;;;;25.67;22.33;;;;;9.82;95.19;97923.06;4846305;29;45353;-82
2024/01/17 09:35:22;;;;;;;;;20.33;20.00;;;;;9.86;93.87;97923.00;4860103;29;44922;-84
2024/01/17 09:38:02;;;;;;;;;20.33;19.33;;;;;9.61;93.39;97921.00;4860788;29;45483;-85
2024/01/17 09:40:28;;;;;;;;;22.67;21.67;;;;;9.69;93.10;97920.81;4861807;29;45449;-86
2024/01/17 09:42:53;;;;;;;;;9.00;4.33;;;;;9.61;92.31;97898.03;4875067;29;44817;-79
2024/01/17 09:45:22;;;;;;;;;25.33;23.33;;;;;9.95;91.80;97898.81;4874063;29;45428;-85
2024/01/17 09:47:56;;;;;;;;;21.33;20.00;;;;;10.16;91.28;97897.31;4857645;29;45600;-81
2024/01/17 09:50:29;;;;;;;;;22.67;20.33;;;;;9.80;92.08;97897.50;4871375;29;45353;-83
2024/01/17 09:53:00;;;;;;;;;17.67;15.67;;;;;9.90;92.53;97896.31;4856835;29;44979;-84
2024/01/17 09:55:27;;;;;;;;;21.33;21.00;;;;;9.60;90.41;97882.13;4852953;29;47198;-84
2024/01/17 09:57:57;;;;;;;;;19.67;16.67;;;;;9.80;91.28;97889.53;4837154;29;45397;-83
2024/01/17 10:00:23;;;;;;;;;20.67;18.67;;;;;9.39;89.89;97865.00;4866359;29;44932;-81
2024/01/17 10:02:56;;;;;;;;;24.00;21.67;;;;;9.82;90.81;97901.84;4857787;29;45576;-80
2024/01/17 10:05:23;;;;;;;;;22.33;22.00;;;;;9.63;85.55;97867.91;4850487;29;45119;-80
2024/01/17 10:07:50;;;;;;;;;16.67;16.67;;;;;9.17;85.51;97830.25;4835266;29;44910;-80
2024/01/17 10:13:39;;;;;;;;;17.00;17.00;;;;;9.36;83.02;97855.38;4836965;29;44924;-84
2024/01/17 10:16:08;;;;;;;;;23.00;21.67;;;;;9.11;82.36;97817.16;4851341;29;47554;-80
2024/01/17 10:18:35;;;;;;;;;20.00;17.00;;;;;9.07;81.82;97815.50;4850489;29;44878;-81
2024/01/17 10:21:03;;;;;;;;;16.33;15.33;;;;;9.10;81.37;97832.19;4848148;29;45387;-86
2024/01/17 10:23:46;;;;;;;;;13.00;12.33;;;;;9.36;80.34;97796.16;4853903;29;45022;-85
2024/01/17 10:26:46;;;;;;;;;16.00;15.33;;;;;9.69;81.04;97791.63;4832280;29;47145;-85
2024/01/17 10:29:15;;;;;;;;;20.67;20.67;;;;;9.38;81.11;97815.53;4845731;29;44894;-84
2024/01/17 10:31:41;;;;;;;;;23.00;20.00;;;;;9.23;81.51;97786.78;4867994;29;45208;-81
2024/01/17 10:34:10;;;;;;;;;20.00;19.00;;;;;9.58;80.38;97812.31;4845857;29;45537;-85
2024/01/17 10:36:41;;;;;;;;;22.33;19.67;;;;;9.53;80.71;97803.63;4814886;29;47132;-81
2024/01/17 10:39:44;;;;;;;;;17.00;17.00;;;;;9.90;79.84;97829.09;4835161;29;45442;-84
2024/01/17 10:42:22;;;;;;;;;21.00;18.33;;;;;9.87;80.18;97807.94;4834251;29;44760;-82
2024/01/17 10:44:50;;;;;;;;;17.33;17.00;;;;;9.46;80.41;97828.59;4846071;29;45487;-80
2024/01/17 10:47:16;;;;;;;;;21.33;20.33;;;;;9.32;79.31;97798.00;4837316;29;45651;-84
2024/01/17 10:49:44;;;;;;;;;17.67;17.67;;;;;9.46;78.79;97812.69;4834763;29;44878;-85
2024/01/17 10:58:41;;;;;;;;;24.33;20.67;;;;;9.34;78.25;97771.47;4856579;29;45601;-84
2024/01/17 11:01:19;;;;;;;;;22.67;17.00;;;;;9.58;78.70;97776.03;4844070;29;45478;-84
2024/01/17 11:03:55;;;;;;;;;22.67;20.00;;;;;9.31;84.70;97764.47;4841236;29;45355;-84
2024/01/17 11:06:35;;;;;;;;;;;;;;;;;;;;;
2024/01/17 11:09:08;;;;;;;;;17.00;17.00;;;;;9.25;86.08;97759.34;4884375;29;74634;-84
2024/01/17 11:11:43;;;;;;;;;22.33;19.00;;;;;9.48;84.11;97741.88;4855241;29;45421;-84
2024/01/17 11:14:17;;;;;;;;;17.00;17.00;;;;;9.64;80.88;97761.72;4870472;29;45312;-85
2024/01/17 11:16:52;;;;;;;;;21.67;15.67;;;;;9.49;80.19;97755.06;4865761;29;44858;-85
2024/01/17 11:19:19;;;;;;;;;19.33;18.33;;;;;9.55;79.75;97732.81;4851336;29;47339;-85
2024/01/17 11:21:45;;;;;;;;;27.33;27.00;;;;;9.50;79.88;97732.09;4850690;29;45443;-84
2024/01/17 11:24:43;;;;;;;;;21.00;19.67;;;;;10.09;78.47;97747.06;4872457;29;44744;-84
2024/01/17 11:27:33;;;;;;;;;21.67;19.33;;;;;10.10;77.78;97728.44;4803511;29;45108;-85
2024/01/17 11:30:54;;;;;;;;;;;;;;;;;;;;;
2024/01/17 11:33:57;;;;;;;;;20.67;17.67;;;;;10.15;78.32;97712.34;4816859;29;73212;-84
2024/01/17 11:37:04;;;;;;;;;20.33;20.33;;;;;10.15;78.30;97723.84;4794950;29;45511;-84
2024/01/17 11:40:18;;;;;;;;;28.00;24.33;;;;;10.15;77.73;97723.84;4775736;29;44881;-84
2024/01/17 11:43:15;;;;;;;;;29.00;27.00;;;;;10.11;78.30;97721.34;4759933;29;45471;-85
2024/01/17 11:46:07;;;;;;;;;26.00;23.00;;;;;9.91;77.84;97690.13;4754969;29;45328;-85
2024/01/17 11:48:38;;;;;;;;;29.67;28.33;;;;;9.97;78.35;97688.13;4789281;29;45556;-87
2024/01/17 11:51:28;;;;;;;;;29.67;27.00;;;;;10.03;77.80;97660.50;4763581;29;45476;-86
2024/01/17 11:54:07;;;;;;;;;32.00;27.33;;;;;10.17;77.79;97683.97;4764672;29;46002;-86
2024/01/17 11:56:35;;;;;;;;;32.00;29.67;;;;;9.76;77.93;97668.47;4779754;29;45381;-86
2024/01/17 11:59:37;;;;;;;;;;;;;;;;;;;;;
2024/01/17 12:05:54;;;;;;;;;;;;;;;;;;;;;